Time;durP1;ratioP1;P1;durP2;ratioP2;P2;SDS_P1;SDS_P2;PMS_P1;PMS_P2;Temp;Humidity;BMP_temperature;BMP_pressure;BME280_temperature;BME280_humidity;BME280_pressure;Samples;Min_cycle;Max_cycle;Signal;HPM_P1;HPM_P2
2021/06/07 00:02:04;;;;;;;14.10;12.27;;;;;;;;;;5075925;28;20246;-86
2021/06/07 00:04:30;;;;;;;13.37;11.93;;;;;;;;;;5075872;28;20202;-87
2021/06/07 00:06:56;;;;;;;13.63;11.87;;;;;;;;;;5076680;28;20178;-87
2021/06/07 00:09:21;;;;;;;15.33;11.87;;;;;;;;;;5076487;28;20170;-87
2021/06/07 00:11:48;;;;;;;13.30;11.13;;;;;;;;;;5076375;28;20170;-87
2021/06/07 00:14:15;;;;;;;13.73;12.00;;;;;;;;;;5076105;28;20644;-87
2021/06/07 00:16:40;;;;;;;15.13;11.70;;;;;;;;;;5075638;28;20174;-87
2021/06/07 00:19:10;;;;;;;13.23;11.67;;;;;;;;;;5076298;28;20163;-87
2021/06/07 00:21:36;;;;;;;14.03;11.90;;;;;;;;;;5075635;28;20244;-87
2021/06/07 00:24:01;;;;;;;12.63;11.33;;;;;;;;;;5075631;28;20159;-87
2021/06/07 00:26:27;;;;;;;13.70;11.37;;;;;;;;;;5075775;28;20191;-87
2021/06/07 00:28:52;;;;;;;13.73;11.17;;;;;;;;;;5075475;28;20163;-86
2021/06/07 00:31:18;;;;;;;13.00;11.60;;;;;;;;;;5076148;28;20159;-86
2021/06/07 00:33:43;;;;;;;15.83;11.87;;;;;;;;;;5075318;28;20170;-86
2021/06/07 00:36:09;;;;;;;12.90;11.60;;;;;;;;;;5075369;28;20625;-86
2021/06/07 00:38:35;;;;;;;12.50;11.30;;;;;;;;;;5076067;28;20163;-86
2021/06/07 00:41:02;;;;;;;14.23;11.73;;;;;;;;;;5075627;28;20171;-86
2021/06/07 00:43:27;;;;;;;15.33;11.53;;;;;;;;;;5075707;28;20171;-85
2021/06/07 00:45:53;;;;;;;12.73;11.50;;;;;;;;;;5074990;28;20191;-85
2021/06/07 00:48:18;;;;;;;16.40;12.33;;;;;;;;;;5075359;28;20554;-87
2021/06/07 00:50:50;;;;;;;13.87;11.90;;;;;;;;;;5075959;28;20223;-87
2021/06/07 00:53:17;;;;;;;13.43;11.20;;;;;;;;;;5075297;28;20167;-88
2021/06/07 00:55:48;;;;;;;15.87;11.63;;;;;;;;;;5074969;28;20621;-87
2021/06/07 00:58:14;;;;;;;13.90;11.67;;;;;;;;;;5074854;28;20163;-87
2021/06/07 01:00:40;;;;;;;15.80;11.43;;;;;;;;;;5074873;28;20172;-89
2021/06/07 01:03:06;;;;;;;12.70;11.50;;;;;;;;;;5074811;28;20678;-89
2021/06/07 01:05:32;;;;;;;13.40;11.67;;;;;;;;;;5074622;28;20203;-88
2021/06/07 01:07:57;;;;;;;17.07;13.07;;;;;;;;;;5057559;28;20182;-89
2021/06/07 01:10:23;;;;;;;13.53;11.50;;;;;;;;;;5075218;28;20174;-86
2021/06/07 01:12:49;;;;;;;13.77;11.40;;;;;;;;;;5074889;28;20175;-87
2021/06/07 01:15:15;;;;;;;13.10;11.80;;;;;;;;;;5074788;28;20183;-87
2021/06/07 01:17:41;;;;;;;16.50;11.87;;;;;;;;;;5075086;28;20167;-87
2021/06/07 01:20:07;;;;;;;13.70;12.27;;;;;;;;;;5074769;28;20171;-87
2021/06/07 01:22:33;;;;;;;12.60;11.47;;;;;;;;;;5074864;28;20285;-87
2021/06/07 01:24:58;;;;;;;13.27;11.87;;;;;;;;;;5056591;28;20293;-87
2021/06/07 01:27:23;;;;;;;12.27;11.07;;;;;;;;;;5074538;28;20172;-87
2021/06/07 01:29:50;;;;;;;13.87;11.23;;;;;;;;;;5074568;28;20199;-84
2021/06/07 01:32:15;;;;;;;13.27;11.03;;;;;;;;;;5074275;28;20176;-86
2021/06/07 01:34:41;;;;;;;13.90;11.57;;;;;;;;;;5074214;28;20529;-86
2021/06/07 01:37:06;;;;;;;14.03;11.50;;;;;;;;;;5074598;28;20659;-87
2021/06/07 01:39:31;;;;;;;12.10;10.90;;;;;;;;;;5074332;28;20175;-87
2021/06/07 01:41:57;;;;;;;13.13;11.23;;;;;;;;;;5057117;28;20199;-86
2021/06/07 01:44:22;;;;;;;12.27;11.07;;;;;;;;;;5074209;28;20163;-86
2021/06/07 01:46:48;;;;;;;12.60;11.30;;;;;;;;;;5074036;28;20258;-86
2021/06/07 01:49:13;;;;;;;13.73;11.90;;;;;;;;;;5074270;28;20174;-86
2021/06/07 01:51:38;;;;;;;12.33;11.13;;;;;;;;;;5073722;28;20623;-86
2021/06/07 01:54:04;;;;;;;12.47;11.27;;;;;;;;;;5074162;28;20560;-87
2021/06/07 01:56:29;;;;;;;13.93;11.30;;;;;;;;;;5074448;28;20175;-87
2021/06/07 01:58:54;;;;;;;12.57;11.27;;;;;;;;;;5074408;28;20254;-86
2021/06/07 02:01:20;;;;;;;12.30;11.10;;;;;;;;;;5073692;28;20260;-87
2021/06/07 02:03:47;;;;;;;14.07;10.77;;;;;;;;;;5074358;28;20175;-85
2021/06/07 02:06:13;;;;;;;12.47;11.37;;;;;;;;;;5074004;28;20272;-87
2021/06/07 02:08:39;;;;;;;13.10;11.80;;;;;;;;;;5073975;28;20179;-85
2021/06/07 02:11:07;;;;;;;14.27;11.47;;;;;;;;;;5073956;28;20254;-85
2021/06/07 02:13:32;;;;;;;13.97;11.97;;;;;;;;;;5074358;28;20221;-85
2021/06/07 02:15:59;;;;;;;12.47;11.23;;;;;;;;;;5072761;28;20575;-85
2021/06/07 02:18:25;;;;;;;12.97;11.67;;;;;;;;;;5074414;28;20229;-85
2021/06/07 02:20:50;;;;;;;13.20;11.70;;;;;;;;;;5074141;28;20167;-85
2021/06/07 02:23:15;;;;;;;12.57;11.30;;;;;;;;;;5074393;28;20174;-85
2021/06/07 02:25:41;;;;;;;13.83;11.27;;;;;;;;;;5073920;28;20289;-85
2021/06/07 02:28:10;;;;;;;13.67;12.03;;;;;;;;;;5074330;28;20239;-87
2021/06/07 02:30:35;;;;;;;13.20;10.63;;;;;;;;;;5074063;28;20175;-87
2021/06/07 02:33:02;;;;;;;12.00;10.80;;;;;;;;;;5074115;28;20487;-87
2021/06/07 02:35:27;;;;;;;12.70;11.40;;;;;;;;;;5073784;28;20175;-87
2021/06/07 02:37:53;;;;;;;12.77;11.40;;;;;;;;;;5073398;28;20177;-88
2021/06/07 02:40:21;;;;;;;11.73;10.60;;;;;;;;;;5073315;28;20183;-87
2021/06/07 02:42:46;;;;;;;12.27;11.10;;;;;;;;;;5073314;28;20187;-87
2021/06/07 02:45:13;;;;;;;11.57;10.53;;;;;;;;;;5073716;28;20198;-86
2021/06/07 02:47:39;;;;;;;13.07;10.83;;;;;;;;;;5073861;28;20182;-86
2021/06/07 02:50:06;;;;;;;12.33;10.40;;;;;;;;;;5073744;28;20168;-85
2021/06/07 02:52:31;;;;;;;14.13;10.43;;;;;;;;;;5074562;28;20661;-86
2021/06/07 02:54:57;;;;;;;11.53;10.47;;;;;;;;;;5073330;28;20201;-85
2021/06/07 02:57:22;;;;;;;11.60;10.40;;;;;;;;;;5073706;28;20175;-85
2021/06/07 02:59:47;;;;;;;14.77;10.60;;;;;;;;;;5073332;28;20180;-86
2021/06/07 03:02:12;;;;;;;13.80;10.93;;;;;;;;;;5073707;28;20170;-86
2021/06/07 03:04:38;;;;;;;13.70;11.20;;;;;;;;;;5073691;28;20324;-87
2021/06/07 03:07:03;;;;;;;13.23;11.87;;;;;;;;;;5073385;28;20167;-86
2021/06/07 03:09:29;;;;;;;12.07;10.83;;;;;;;;;;5073375;28;20179;-89
2021/06/07 03:11:54;;;;;;;11.67;10.47;;;;;;;;;;5055267;28;20175;-89
2021/06/07 03:14:20;;;;;;;15.10;10.87;;;;;;;;;;5073302;28;20256;-89
2021/06/07 03:16:45;;;;;;;13.57;10.70;;;;;;;;;;5072975;28;20576;-89
2021/06/07 03:19:10;;;;;;;12.20;10.97;;;;;;;;;;5055243;28;20632;-88
2021/06/07 03:21:35;;;;;;;11.80;10.50;;;;;;;;;;5072952;28;20197;-89
2021/06/07 03:24:01;;;;;;;11.93;10.67;;;;;;;;;;5073150;28;20263;-88
2021/06/07 03:26:26;;;;;;;11.70;10.70;;;;;;;;;;5072958;28;20510;-88
2021/06/07 03:28:52;;;;;;;12.33;11.13;;;;;;;;;;5077027;28;20202;-88
2021/06/07 03:31:17;;;;;;;18.97;17.17;;;;;;;;;;5077025;28;20174;-90
2021/06/07 03:33:42;;;;;;;23.10;21.07;;;;;;;;;;5076995;28;20179;-89
2021/06/07 03:36:08;;;;;;;30.00;25.47;;;;;;;;;;5076695;28;20243;-90
2021/06/07 03:38:33;;;;;;;30.93;27.63;;;;;;;;;;5058649;28;20186;-85
2021/06/07 03:40:59;;;;;;;34.30;31.00;;;;;;;;;;5076270;28;20245;-86
2021/06/07 03:43:29;;;;;;;36.60;32.60;;;;;;;;;;5076743;28;20179;-86
2021/06/07 03:45:54;;;;;;;32.13;28.83;;;;;;;;;;5076781;28;20175;-86
2021/06/07 03:48:20;;;;;;;36.80;33.20;;;;;;;;;;5077115;28;20171;-87
2021/06/07 03:50:45;;;;;;;38.47;31.63;;;;;;;;;;5075913;28;20592;-86
2021/06/07 03:53:11;;;;;;;30.77;27.10;;;;;;;;;;5075874;28;20159;-86
2021/06/07 03:55:37;;;;;;;18.57;16.70;;;;;;;;;;5074894;28;20195;-87
2021/06/07 03:58:02;;;;;;;14.63;12.50;;;;;;;;;;5074767;28;20190;-87
2021/06/07 04:00:29;;;;;;;12.37;10.50;;;;;;;;;;5074845;28;20174;-86
2021/06/07 04:02:54;;;;;;;11.30;10.20;;;;;;;;;;5075640;28;20610;-87
2021/06/07 04:05:20;;;;;;;11.20;10.10;;;;;;;;;;5074794;28;20232;-87
2021/06/07 04:07:45;;;;;;;10.27;9.33;;;;;;;;;;5074822;28;20168;-87
2021/06/07 04:10:13;;;;;;;11.07;9.97;;;;;;;;;;5074977;28;20190;-87
2021/06/07 04:12:39;;;;;;;9.82;8.88;;;;;;;;;;5057003;28;20619;-87
2021/06/07 04:15:05;;;;;;;11.00;9.95;;;;;;;;;;5075130;28;20231;-87
2021/06/07 04:17:30;;;;;;;11.30;9.40;;;;;;;;;;5074939;28;20266;-87
2021/06/07 04:19:55;;;;;;;10.63;9.50;;;;;;;;;;5073626;28;20244;-87
2021/06/07 04:22:21;;;;;;;9.65;8.88;;;;;;;;;;5074856;28;20225;-88
2021/06/07 04:24:46;;;;;;;8.90;8.20;;;;;;;;;;5074720;28;20174;-87
2021/06/07 04:27:13;;;;;;;8.82;8.23;;;;;;;;;;5074475;28;20171;-87
2021/06/07 04:29:40;;;;;;;8.77;7.90;;;;;;;;;;5074733;28;20170;-87
2021/06/07 04:32:07;;;;;;;8.65;8.05;;;;;;;;;;5074494;28;20167;-87
2021/06/07 04:34:32;;;;;;;9.35;7.90;;;;;;;;;;5075008;28;20191;-89
2021/06/07 04:36:57;;;;;;;8.15;7.35;;;;;;;;;;5074381;28;20194;-89
2021/06/07 04:39:23;;;;;;;7.68;7.18;;;;;;;;;;5073370;28;20525;-89
2021/06/07 04:41:48;;;;;;;8.18;7.35;;;;;;;;;;5074542;28;20621;-86
2021/06/07 04:44:13;;;;;;;8.02;7.43;;;;;;;;;;5074605;28;20174;-88
2021/06/07 04:46:38;;;;;;;7.57;6.97;;;;;;;;;;5074244;28;20182;-87
2021/06/07 04:49:04;;;;;;;7.82;7.20;;;;;;;;;;5074626;28;20622;-89
2021/06/07 04:51:29;;;;;;;7.93;7.32;;;;;;;;;;5069936;28;129479;-90
2021/06/07 04:53:54;;;;;;;7.05;6.45;;;;;;;;;;5075297;28;20187;-85
2021/06/07 04:56:20;;;;;;;8.05;7.35;;;;;;;;;;5075653;28;20203;-86
2021/06/07 04:58:45;;;;;;;7.53;6.93;;;;;;;;;;5074848;28;20175;-87
2021/06/07 05:01:13;;;;;;;8.32;7.30;;;;;;;;;;5075153;28;20167;-86
2021/06/07 05:03:38;;;;;;;7.10;6.50;;;;;;;;;;5074711;28;20218;-87
2021/06/07 05:06:04;;;;;;;6.95;6.45;;;;;;;;;;5075500;28;20268;-87
2021/06/07 05:08:30;;;;;;;7.60;6.93;;;;;;;;;;5075257;28;20610;-87
2021/06/07 05:10:56;;;;;;;6.97;6.47;;;;;;;;;;5074668;28;20577;-87
2021/06/07 05:13:22;;;;;;;6.85;6.25;;;;;;;;;;5074791;28;20175;-90
2021/06/07 05:15:47;;;;;;;7.20;6.25;;;;;;;;;;5074807;28;20219;-90
2021/06/07 05:18:13;;;;;;;6.95;6.35;;;;;;;;;;5077326;28;20189;-91
2021/06/07 05:20:39;;;;;;;7.68;6.63;;;;;;;;;;5095397;28;20174;-91
2021/06/07 05:23:05;;;;;;;7.45;6.60;;;;;;;;;;5095246;28;20166;-91
2021/06/07 05:25:32;;;;;;;6.50;5.95;;;;;;;;;;5088435;28;20556;-93
2021/06/07 05:27:59;;;;;;;6.13;5.53;;;;;;;;;;5074865;28;20181;-91
2021/06/07 05:30:25;;;;;;;7.05;6.45;;;;;;;;;;5085095;28;20174;-89
2021/06/07 05:32:51;;;;;;;6.13;5.63;;;;;;;;;;5094460;28;20178;-90
2021/06/07 05:35:17;;;;;;;6.55;5.80;;;;;;;;;;5092504;28;20176;-89
2021/06/07 05:37:42;;;;;;;6.70;6.07;;;;;;;;;;5094162;28;20311;-89
2021/06/07 05:40:08;;;;;;;6.60;6.10;;;;;;;;;;5090102;28;20248;-91
2021/06/07 05:42:34;;;;;;;6.80;6.25;;;;;;;;;;5090840;28;20185;-91
2021/06/07 05:44:59;;;;;;;6.80;6.28;;;;;;;;;;5093633;28;20209;-91
2021/06/07 05:47:25;;;;;;;6.28;5.68;;;;;;;;;;5094394;28;20184;-91
2021/06/07 05:49:50;;;;;;;6.45;6.03;;;;;;;;;;5076679;28;20178;-90
2021/06/07 05:52:16;;;;;;;7.00;6.00;;;;;;;;;;5095035;28;20229;-93
2021/06/07 05:54:42;;;;;;;7.63;6.18;;;;;;;;;;5093022;28;20536;-93
2021/06/07 05:57:08;;;;;;;6.65;6.00;;;;;;;;;;5091124;28;20173;-91
2021/06/07 05:59:36;;;;;;;6.35;5.75;;;;;;;;;;5094381;28;20221;-92
2021/06/07 06:02:08;;;;;;;7.05;6.35;;;;;;;;;;5076450;28;20178;-95
2021/06/07 06:04:35;;;;;;;6.88;6.28;;;;;;;;;;5076251;28;20165;-95
2021/06/07 06:07:03;;;;;;;6.00;5.50;;;;;;;;;;5075839;28;20181;-95
2021/06/07 06:09:30;;;;;;;5.80;5.40;;;;;;;;;;5094560;28;20162;-95
2021/06/07 06:11:57;;;;;;;5.65;5.18;;;;;;;;;;5067362;28;20182;-91
2021/06/07 06:14:23;;;;;;;6.35;5.63;;;;;;;;;;5077881;28;20169;-92
2021/06/07 06:16:48;;;;;;;5.57;5.00;;;;;;;;;;5094020;28;20591;-89
2021/06/07 06:19:14;;;;;;;5.53;5.03;;;;;;;;;;5075235;28;20204;-89
2021/06/07 06:21:40;;;;;;;5.50;5.10;;;;;;;;;;5093763;28;20256;-91
2021/06/07 06:24:15;;;;;;;5.70;5.03;;;;;;;;;;5091112;28;20200;-92
2021/06/07 06:26:40;;;;;;;5.97;5.00;;;;;;;;;;5093836;28;20211;-91
2021/06/07 06:29:07;;;;;;;5.43;4.82;;;;;;;;;;5093868;28;20166;-90
2021/06/07 06:31:32;;;;;;;6.95;5.10;;;;;;;;;;5094075;28;20192;-89
2021/06/07 06:33:58;;;;;;;5.88;4.90;;;;;;;;;;5094278;28;20519;-89
2021/06/07 06:36:23;;;;;;;5.82;5.10;;;;;;;;;;5092852;28;20166;-90
2021/06/07 06:38:49;;;;;;;5.15;4.63;;;;;;;;;;5093960;28;20192;-92
2021/06/07 06:41:14;;;;;;;5.80;5.30;;;;;;;;;;5093951;28;20265;-91
2021/06/07 06:43:39;;;;;;;5.35;4.95;;;;;;;;;;5093205;28;20176;-91
2021/06/07 06:46:05;;;;;;;5.28;4.88;;;;;;;;;;5093500;28;20288;-91
2021/06/07 06:48:33;;;;;;;7.97;4.90;;;;;;;;;;5093734;28;20253;-90
2021/06/07 06:50:58;;;;;;;5.20;4.70;;;;;;;;;;5093683;28;20688;-90
2021/06/07 06:53:24;;;;;;;5.68;4.80;;;;;;;;;;5093209;28;20166;-91
2021/06/07 06:55:50;;;;;;;5.85;4.90;;;;;;;;;;5092282;28;20265;-89
2021/06/07 06:58:15;;;;;;;5.22;4.90;;;;;;;;;;5093447;28;20244;-87
2021/06/07 07:00:41;;;;;;;5.90;5.13;;;;;;;;;;5093663;28;20174;-88
2021/06/07 07:03:07;;;;;;;5.72;5.00;;;;;;;;;;5095786;28;20166;-88
2021/06/07 07:05:33;;;;;;;5.43;5.03;;;;;;;;;;5097213;28;20197;-88
2021/06/07 07:07:58;;;;;;;4.90;4.50;;;;;;;;;;5097287;28;20173;-87
2021/06/07 07:10:23;;;;;;;5.63;5.05;;;;;;;;;;5097117;28;20174;-88
2021/06/07 07:12:49;;;;;;;5.47;4.95;;;;;;;;;;5097093;28;20166;-87
2021/06/07 07:15:14;;;;;;;5.63;5.20;;;;;;;;;;5097446;28;20605;-88
2021/06/07 07:17:40;;;;;;;7.50;5.50;;;;;;;;;;5095123;28;20183;-89
2021/06/07 07:20:06;;;;;;;7.85;5.63;;;;;;;;;;5078172;28;20197;-89
2021/06/07 07:22:32;;;;;;;6.00;5.50;;;;;;;;;;5097141;28;20170;-89
2021/06/07 07:24:57;;;;;;;5.80;5.22;;;;;;;;;;5078793;28;20206;-88
2021/06/07 07:27:23;;;;;;;7.47;5.40;;;;;;;;;;5096734;28;20725;-87
2021/06/07 07:29:49;;;;;;;5.65;5.00;;;;;;;;;;5096730;28;20181;-87
2021/06/07 07:32:14;;;;;;;6.80;4.80;;;;;;;;;;5097011;28;20170;-88
2021/06/07 07:34:41;;;;;;;5.50;5.00;;;;;;;;;;5096942;28;20173;-88
2021/06/07 07:37:06;;;;;;;4.78;4.38;;;;;;;;;;5096841;28;20244;-88
2021/06/07 07:39:32;;;;;;;5.03;4.63;;;;;;;;;;5095924;28;20189;-87
2021/06/07 07:41:57;;;;;;;5.55;4.20;;;;;;;;;;5096750;28;20248;-87
2021/06/07 07:44:22;;;;;;;4.75;4.10;;;;;;;;;;5096655;28;20170;-88
2021/06/07 07:46:48;;;;;;;5.05;4.22;;;;;;;;;;5096782;28;20201;-90
2021/06/07 07:49:13;;;;;;;5.80;4.40;;;;;;;;;;5096467;28;20166;-88
2021/06/07 07:51:39;;;;;;;4.90;4.40;;;;;;;;;;5096245;28;20279;-87
2021/06/07 07:54:05;;;;;;;4.30;4.05;;;;;;;;;;5096322;28;20162;-89
2021/06/07 07:56:31;;;;;;;4.38;3.97;;;;;;;;;;5078371;28;20575;-89
2021/06/07 07:58:56;;;;;;;5.05;3.85;;;;;;;;;;5096358;28;20163;-89
2021/06/07 08:01:21;;;;;;;4.57;4.18;;;;;;;;;;5095939;28;20175;-89
2021/06/07 08:03:47;;;;;;;4.63;4.15;;;;;;;;;;5095555;28;20167;-90
2021/06/07 08:06:13;;;;;;;4.20;3.90;;;;;;;;;;5077890;28;20217;-89
2021/06/07 08:08:38;;;;;;;4.40;4.07;;;;;;;;;;5096383;28;20202;-90
2021/06/07 08:11:04;;;;;;;5.18;4.07;;;;;;;;;;5096114;28;20202;-91
2021/06/07 08:13:29;;;;;;;4.22;3.95;;;;;;;;;;5076955;28;20743;-90
2021/06/07 08:15:55;;;;;;;4.53;3.75;;;;;;;;;;5095283;28;20200;-91
2021/06/07 08:18:20;;;;;;;5.35;4.40;;;;;;;;;;5095552;28;20682;-89
2021/06/07 08:20:46;;;;;;;4.90;4.45;;;;;;;;;;5095675;28;20185;-87
2021/06/07 08:23:11;;;;;;;4.78;4.47;;;;;;;;;;5096101;28;20223;-87
2021/06/07 08:25:37;;;;;;;5.68;5.10;;;;;;;;;;5095896;28;20639;-88
2021/06/07 08:28:02;;;;;;;7.78;5.97;;;;;;;;;;5095643;28;20162;-88
2021/06/07 08:30:30;;;;;;;5.53;5.03;;;;;;;;;;5095897;28;20220;-89
2021/06/07 08:32:55;;;;;;;5.88;5.38;;;;;;;;;;5096046;28;20173;-88
2021/06/07 08:35:21;;;;;;;5.60;5.10;;;;;;;;;;5094825;28;20261;-88
2021/06/07 08:37:46;;;;;;;6.78;5.55;;;;;;;;;;5096017;28;20167;-87
2021/06/07 08:40:13;;;;;;;5.82;5.40;;;;;;;;;;5095856;28;20166;-87
2021/06/07 08:42:41;;;;;;;5.70;5.22;;;;;;;;;;5093584;28;20239;-91
2021/06/07 08:45:07;;;;;;;6.30;5.03;;;;;;;;;;5079594;28;20215;-89
2021/06/07 08:47:32;;;;;;;4.80;4.40;;;;;;;;;;5095289;28;20177;-89
2021/06/07 08:49:58;;;;;;;5.43;4.93;;;;;;;;;;5094595;28;20253;-88
2021/06/07 08:52:24;;;;;;;5.50;5.00;;;;;;;;;;5094603;28;20243;-87
2021/06/07 08:54:49;;;;;;;5.85;4.97;;;;;;;;;;5084494;28;20174;-89
2021/06/07 08:57:15;;;;;;;6.53;4.57;;;;;;;;;;5093526;28;20606;-88
2021/06/07 08:59:41;;;;;;;4.90;4.50;;;;;;;;;;5092801;28;20171;-88
2021/06/07 09:02:07;;;;;;;7.15;4.45;;;;;;;;;;5092940;28;20224;-89
2021/06/07 09:04:44;;;;;;;4.70;4.30;;;;;;;;;;5093098;28;20178;-93
2021/06/07 09:07:10;;;;;;;4.70;4.30;;;;;;;;;;5078054;28;20259;-89
2021/06/07 09:09:38;;;;;;;5.70;4.53;;;;;;;;;;5093195;28;20265;-89
2021/06/07 09:12:08;;;;;;;4.72;4.43;;;;;;;;;;5093263;28;20170;-92
2021/06/07 09:14:37;;;;;;;4.72;4.32;;;;;;;;;;5075609;28;20205;-91
2021/06/07 09:17:14;;;;;;;5.00;4.57;;;;;;;;;;5094777;28;20253;-92
2021/06/07 09:19:41;;;;;;;5.47;4.38;;;;;;;;;;5094506;28;20202;-91
2021/06/07 09:22:20;;;;;;;5.15;4.03;;;;;;;;;;5092709;28;20638;-91
2021/06/07 09:25:04;;;;;;;4.80;3.97;;;;;;;;;;5076540;28;20166;-92
2021/06/07 09:27:29;;;;;;;4.50;4.20;;;;;;;;;;5076909;28;20174;-91
2021/06/07 09:29:54;;;;;;;5.20;4.05;;;;;;;;;;5076260;28;20173;-92
2021/06/07 09:32:21;;;;;;;6.60;4.20;;;;;;;;;;5076435;28;20190;-92
2021/06/07 09:35:02;;;;;;;4.10;3.80;;;;;;;;;;5076586;28;20181;-91
2021/06/07 09:37:28;;;;;;;4.60;4.10;;;;;;;;;;5095067;28;20186;-93
2021/06/07 09:40:15;;;;;;;4.80;4.40;;;;;;;;;;5092741;28;20261;-93
2021/06/07 09:42:53;;;;;;;4.38;3.97;;;;;;;;;;5094814;28;20185;-92
2021/06/07 09:45:33;;;;;;;4.38;4.03;;;;;;;;;;5094115;28;20209;-92
2021/06/07 09:48:07;;;;;;;4.13;3.75;;;;;;;;;;5076403;28;20170;-91
2021/06/07 09:50:33;;;;;;;4.20;3.75;;;;;;;;;;5094469;28;20166;-92
2021/06/07 09:53:00;;;;;;;4.00;3.55;;;;;;;;;;5076074;28;20190;-92
2021/06/07 09:55:27;;;;;;;4.10;3.80;;;;;;;;;;5094479;28;20621;-90
2021/06/07 09:57:56;;;;;;;4.47;4.07;;;;;;;;;;5076216;28;20257;-92
2021/06/07 10:00:34;;;;;;;4.70;4.20;;;;;;;;;;5076102;28;20174;-91
2021/06/07 10:03:18;;;;;;;4.00;3.70;;;;;;;;;;5076239;28;20643;-94
2021/06/07 10:05:44;;;;;;;6.28;4.07;;;;;;;;;;5076327;28;20209;-94
2021/06/07 10:08:10;;;;;;;6.72;6.20;;;;;;;;;;5075809;28;20503;-94
2021/06/07 10:10:38;;;;;;;4.75;3.90;;;;;;;;;;5076621;28;20231;-95
2021/06/07 10:13:07;;;;;;;4.00;3.70;;;;;;;;;;5076074;28;20216;-92
2021/06/07 10:15:34;;;;;;;4.50;4.10;;;;;;;;;;5094347;28;20679;-92
2021/06/07 10:18:00;;;;;;;5.25;4.53;;;;;;;;;;5094247;28;20171;-92
2021/06/07 10:22:51;;;;;;;4.38;4.00;;;;;;;;;;5093873;28;20678;-93
2021/06/07 10:25:18;;;;;;;5.10;4.38;;;;;;;;;;5093965;28;20210;-93
2021/06/07 10:27:45;;;;;;;5.22;4.72;;;;;;;;;;5093079;28;20189;-95
2021/06/07 10:30:15;;;;;;;4.82;4.40;;;;;;;;;;5080892;28;20178;-92
2021/06/07 10:32:40;;;;;;;4.60;4.30;;;;;;;;;;5082193;28;20574;-92
2021/06/07 10:35:06;;;;;;;4.55;4.15;;;;;;;;;;5082597;28;20167;-91
2021/06/07 10:37:32;;;;;;;5.72;4.50;;;;;;;;;;5095677;28;20171;-92
2021/06/07 10:40:27;;;;;;;4.85;4.35;;;;;;;;;;5096176;28;20174;-91
2021/06/07 10:42:59;;;;;;;4.28;3.95;;;;;;;;;;5081517;28;20179;-91
2021/06/07 10:45:27;;;;;;;6.00;4.50;;;;;;;;;;5079780;28;20207;-91
2021/06/07 10:47:53;;;;;;;3.97;3.78;;;;;;;;;;5085864;28;20178;-91
2021/06/07 10:50:22;;;;;;;4.38;3.97;;;;;;;;;;5097537;28;20171;-90
2021/06/07 10:52:54;;;;;;;4.20;3.80;;;;;;;;;;5094982;28;20196;-93
2021/06/07 10:55:24;;;;;;;3.97;3.78;;;;;;;;;;5097378;28;20241;-91
2021/06/07 10:57:54;;;;;;;6.15;3.90;;;;;;;;;;5081516;28;20166;-91
2021/06/07 11:00:21;;;;;;;4.40;4.07;;;;;;;;;;5095842;28;20206;-92
2021/06/07 11:02:47;;;;;;;5.78;4.32;;;;;;;;;;5085173;28;20537;-91
2021/06/07 11:05:17;;;;;;;4.90;4.50;;;;;;;;;;5095399;28;20266;-91
2021/06/07 11:07:44;;;;;;;4.70;4.30;;;;;;;;;;5095329;28;20170;-90
2021/06/07 11:10:15;;;;;;;13.13;9.30;;;;;;;;;;5095711;28;20170;-90
2021/06/07 11:12:41;;;;;;;17.77;9.50;;;;;;;;;;5079472;28;20182;-90
2021/06/07 11:15:06;;;;;;;16.13;12.30;;;;;;;;;;5096831;28;20178;-89
2021/06/07 11:17:32;;;;;;;10.80;8.68;;;;;;;;;;5097238;28;20219;-89
2021/06/07 11:19:58;;;;;;;5.18;4.45;;;;;;;;;;5096610;28;20731;-91
2021/06/07 11:22:24;;;;;;;4.60;4.22;;;;;;;;;;5078378;28;20178;-95
2021/06/07 11:24:50;;;;;;;4.93;4.47;;;;;;;;;;5095003;28;20227;-95
2021/06/07 11:27:35;;;;;;;5.00;4.70;;;;;;;;;;5095237;28;20613;-94
2021/06/07 11:30:08;;;;;;;4.70;4.40;;;;;;;;;;5095206;28;20200;-95
2021/06/07 11:32:33;;;;;;;4.90;4.50;;;;;;;;;;5094872;28;20269;-89
2021/06/07 11:34:59;;;;;;;5.68;4.75;;;;;;;;;;5093850;28;20257;-92
2021/06/07 11:37:30;;;;;;;4.70;4.40;;;;;;;;;;5085446;28;20542;-89
2021/06/07 11:39:55;;;;;;;4.70;4.30;;;;;;;;;;5095062;28;20174;-93
2021/06/07 11:42:27;;;;;;;4.90;4.50;;;;;;;;;;5096731;28;20523;-90
2021/06/07 11:44:56;;;;;;;4.97;4.68;;;;;;;;;;5095225;28;20521;-90
2021/06/07 11:47:25;;;;;;;4.53;4.22;;;;;;;;;;5078704;28;20256;-90
2021/06/07 11:50:11;;;;;;;4.50;4.20;;;;;;;;;;5096481;28;20629;-90
2021/06/07 11:52:36;;;;;;;4.88;4.57;;;;;;;;;;5060926;28;20292;-89
2021/06/07 11:55:20;;;;;;;4.50;4.10;;;;;;;;;;5097171;28;20178;-89
2021/06/07 11:57:47;;;;;;;4.45;4.15;;;;;;;;;;5097156;28;20171;-91
2021/06/07 12:00:13;;;;;;;4.68;4.30;;;;;;;;;;5096596;28;20250;-91
2021/06/07 12:02:38;;;;;;;4.97;4.50;;;;;;;;;;5096294;28;20208;-89
2021/06/07 12:05:04;;;;;;;4.47;4.18;;;;;;;;;;5096433;28;20218;-91
2021/06/07 12:07:33;;;;;;;5.00;4.60;;;;;;;;;;5077863;28;20178;-92
2021/06/07 12:09:59;;;;;;;4.90;4.50;;;;;;;;;;5075815;28;20170;-91
2021/06/07 12:12:26;;;;;;;6.43;4.25;;;;;;;;;;5096324;28;20205;-91
2021/06/07 12:14:53;;;;;;;4.88;4.40;;;;;;;;;;5078444;28;20192;-91
2021/06/07 12:17:20;;;;;;;5.00;4.70;;;;;;;;;;5078039;28;20257;-89
2021/06/07 12:19:55;;;;;;;6.00;5.43;;;;;;;;;;5076431;28;20659;-90
2021/06/07 12:22:40;;;;;;;5.38;4.88;;;;;;;;;;5093074;28;20616;-90
2021/06/07 12:30:35;;;;;;;5.65;4.25;;;;;;;;;;5094448;28;20169;-92
2021/06/07 12:33:01;;;;;;;5.30;4.60;;;;;;;;;;5093912;28;20171;-91
2021/06/07 12:35:28;;;;;;;4.90;4.50;;;;;;;;;;5075048;28;20174;-89
2021/06/07 12:37:55;;;;;;;4.82;4.45;;;;;;;;;;5093784;28;20166;-89
2021/06/07 12:40:20;;;;;;;5.35;4.90;;;;;;;;;;5094947;28;20162;-90
2021/06/07 12:42:50;;;;;;;5.03;4.50;;;;;;;;;;5094494;28;20243;-89
2021/06/07 12:45:19;;;;;;;4.97;4.57;;;;;;;;;;5093829;28;20198;-91
2021/06/07 12:47:45;;;;;;;5.03;4.68;;;;;;;;;;5093868;28;20173;-90
2021/06/07 12:50:12;;;;;;;5.25;4.85;;;;;;;;;;5093874;28;20277;-90
2021/06/07 12:52:37;;;;;;;5.43;5.07;;;;;;;;;;5093827;28;20237;-90
2021/06/07 12:55:04;;;;;;;5.00;4.70;;;;;;;;;;5095291;28;20620;-90
2021/06/07 12:57:30;;;;;;;5.65;5.25;;;;;;;;;;5094570;28;20304;-84
2021/06/07 13:02:31;;;;;;;5.60;5.20;;;;;;;;;;5150926;27;20521;-83
2021/06/07 13:04:56;;;;;;;5.85;5.32;;;;;;;;;;5152558;27;20165;-83
2021/06/07 13:07:21;;;;;;;5.70;5.30;;;;;;;;;;5138604;27;20176;-84
2021/06/07 13:09:49;;;;;;;5.60;5.10;;;;;;;;;;5131914;28;20567;-84
2021/06/07 13:12:21;;;;;;;5.75;5.28;;;;;;;;;;5131782;28;20170;-84
2021/06/07 13:14:54;;;;;;;6.63;5.95;;;;;;;;;;5132403;28;20172;-84
2021/06/07 13:17:20;;;;;;;6.10;5.50;;;;;;;;;;5131825;28;20169;-84
2021/06/07 13:19:51;;;;;;;6.13;5.50;;;;;;;;;;5132029;27;20165;-84
2021/06/07 13:22:17;;;;;;;5.90;5.50;;;;;;;;;;5131639;27;20555;-84
2021/06/07 13:24:43;;;;;;;6.07;5.55;;;;;;;;;;5131818;27;20168;-83
2021/06/07 13:27:17;;;;;;;5.60;5.20;;;;;;;;;;5131481;27;20170;-83
2021/06/07 13:29:45;;;;;;;5.82;5.43;;;;;;;;;;5131552;27;20635;-84
2021/06/07 13:32:12;;;;;;;5.20;4.78;;;;;;;;;;5131345;27;20174;-84
2021/06/07 13:34:54;;;;;;;5.95;5.45;;;;;;;;;;5131910;27;20173;-83
2021/06/07 13:37:19;;;;;;;5.75;5.35;;;;;;;;;;5131610;27;20209;-83
2021/06/07 13:39:45;;;;;;;5.57;5.07;;;;;;;;;;5131782;27;20255;-83
2021/06/07 13:42:12;;;;;;;5.68;5.22;;;;;;;;;;5131318;28;20203;-84
2021/06/07 13:44:51;;;;;;;7.40;5.22;;;;;;;;;;5131312;28;20173;-84
2021/06/07 13:47:20;;;;;;;6.20;5.60;;;;;;;;;;5129401;28;20173;-84
2021/06/07 13:49:57;;;;;;;5.38;4.97;;;;;;;;;;5126639;28;20565;-84
2021/06/07 13:52:22;;;;;;;5.40;5.00;;;;;;;;;;5131486;28;20184;-84
2021/06/07 13:54:54;;;;;;;5.07;4.65;;;;;;;;;;5131074;28;20337;-86
2021/06/07 13:57:19;;;;;;;6.18;4.97;;;;;;;;;;5129712;28;20189;-86
2021/06/07 13:59:44;;;;;;;6.03;5.47;;;;;;;;;;5111554;28;20205;-85
2021/06/07 14:02:10;;;;;;;5.78;5.00;;;;;;;;;;5130499;27;20264;-85
2021/06/07 14:04:35;;;;;;;5.13;4.78;;;;;;;;;;5131222;28;20161;-85
2021/06/07 14:07:00;;;;;;;5.60;5.10;;;;;;;;;;5130361;27;20219;-86
2021/06/07 14:09:29;;;;;;;6.05;4.75;;;;;;;;;;5130547;27;20535;-85
2021/06/07 14:11:55;;;;;;;4.88;4.57;;;;;;;;;;5127949;28;20655;-86
2021/06/07 14:14:22;;;;;;;4.95;4.60;;;;;;;;;;5117584;28;20193;-86
2021/06/07 14:16:47;;;;;;;5.18;4.78;;;;;;;;;;5117417;28;20169;-85
2021/06/07 14:19:12;;;;;;;6.30;5.80;;;;;;;;;;5116697;28;20670;-86
2021/06/07 14:24:37;;;;;;;6.25;5.63;;;;;;;;;;5117032;28;20190;-86
2021/06/07 14:24:38;;;;;;;5.05;4.70;;;;;;;;;;5115475;28;20500;-86
2021/06/07 14:27:05;;;;;;;5.65;5.25;;;;;;;;;;5116938;28;20612;-85
2021/06/07 14:29:30;;;;;;;5.43;5.03;;;;;;;;;;5116783;28;20166;-87
2021/06/07 14:31:55;;;;;;;5.30;4.90;;;;;;;;;;5117288;28;20560;-84
2021/06/07 14:34:21;;;;;;;5.47;4.97;;;;;;;;;;5116815;28;20173;-85
2021/06/07 14:36:49;;;;;;;6.28;5.25;;;;;;;;;;5116597;28;20644;-84
2021/06/07 14:39:14;;;;;;;4.93;4.63;;;;;;;;;;5116832;28;20181;-84
2021/06/07 14:41:40;;;;;;;5.50;5.00;;;;;;;;;;5116760;28;20190;-86
2021/06/07 14:44:05;;;;;;;5.25;4.90;;;;;;;;;;5116360;28;20173;-84
2021/06/07 14:46:30;;;;;;;5.55;4.88;;;;;;;;;;5116626;28;20639;-84